Time;durP1;ratioP1;P1;durP2;ratioP2;P2;SDS_P1;SDS_P2;PMS_P1;PMS_P2;Temp;Humidity;BMP_temperature;BMP_pressure;BME280_temperature;BME280_humidity;BME280_pressure;Samples;Min_cycle;Max_cycle;Signal;HPM_P1;HPM_P2
2023/04/04 00:01:53;;;;;;;5.53;4.90;;;;;;;;;;10290059;28;20497;-67
2023/04/04 00:06:51;;;;;;;5.10;4.50;;;;;;;;;;10284448;28;20060;-67
2023/04/04 00:11:51;;;;;;;5.55;5.05;;;;;;;;;;10288187;28;20088;-67
2023/04/04 00:16:49;;;;;;;7.13;5.28;;;;;;;;;;10289837;28;20084;-67
2023/04/04 00:21:49;;;;;;;6.00;5.40;;;;;;;;;;10289856;28;20526;-67
2023/04/04 00:26:47;;;;;;;5.18;4.75;;;;;;;;;;10288769;28;20068;-68
2023/04/04 00:31:47;;;;;;;5.85;5.35;;;;;;;;;;10288866;28;20072;-66
2023/04/04 00:36:46;;;;;;;6.03;5.45;;;;;;;;;;10295752;28;20049;-67
2023/04/04 00:41:44;;;;;;;6.05;5.38;;;;;;;;;;10289372;28;20053;-66
2023/04/04 00:46:43;;;;;;;5.55;5.05;;;;;;;;;;10293860;28;20048;-67
2023/04/04 00:51:42;;;;;;;6.28;5.32;;;;;;;;;;10288781;28;20500;-67
2023/04/04 00:56:41;;;;;;;6.30;5.70;;;;;;;;;;10289380;28;20080;-67
2023/04/04 01:01:40;;;;;;;5.90;5.22;;;;;;;;;;10291705;28;20045;-67
2023/04/04 01:06:38;;;;;;;6.05;5.13;;;;;;;;;;10288098;28;20040;-68
2023/04/04 01:11:38;;;;;;;6.53;5.93;;;;;;;;;;10287163;28;20076;-67
2023/04/04 01:16:38;;;;;;;8.00;6.50;;;;;;;;;;10288525;28;20041;-67
2023/04/04 01:21:37;;;;;;;6.22;5.63;;;;;;;;;;10285410;28;20060;-67
2023/04/04 01:26:37;;;;;;;8.30;6.25;;;;;;;;;;10301293;28;20079;-67
2023/04/04 01:31:37;;;;;;;7.60;5.88;;;;;;;;;;10297955;28;20091;-67
2023/04/04 01:36:40;;;;;;;8.50;5.43;;;;;;;;;;10293987;28;20072;-68
2023/04/04 01:41:40;;;;;;;6.00;5.40;;;;;;;;;;10295631;28;20429;-67
2023/04/04 01:46:38;;;;;;;6.10;5.60;;;;;;;;;;10294445;28;20079;-68
2023/04/04 01:51:39;;;;;;;5.63;5.03;;;;;;;;;;10299271;28;20080;-68
2023/04/04 01:56:39;;;;;;;5.38;4.88;;;;;;;;;;10296169;28;20079;-68
2023/04/04 02:01:38;;;;;;;5.13;4.60;;;;;;;;;;10287096;28;20052;-68
2023/04/04 02:06:36;;;;;;;4.72;4.32;;;;;;;;;;10291453;28;20106;-68
2023/04/04 02:11:36;;;;;;;5.95;4.95;;;;;;;;;;10293238;28;20210;-68
2023/04/04 02:16:36;;;;;;;5.28;4.78;;;;;;;;;;10294495;28;20076;-68
2023/04/04 02:21:35;;;;;;;4.65;4.25;;;;;;;;;;10293329;28;20569;-68
2023/04/04 02:26:33;;;;;;;5.90;5.20;;;;;;;;;;10294075;28;20080;-68
2023/04/04 02:31:31;;;;;;;5.85;5.30;;;;;;;;;;10299441;28;20086;-68
2023/04/04 02:36:32;;;;;;;9.00;5.47;;;;;;;;;;10303423;28;20060;-68
2023/04/04 02:41:31;;;;;;;5.63;5.03;;;;;;;;;;10293660;28;20064;-67
2023/04/04 02:46:29;;;;;;;6.32;4.93;;;;;;;;;;10292432;28;20068;-68
2023/04/04 02:51:34;;;;;;;8.60;4.70;;;;;;;;;;10296119;28;20095;-68
2023/04/04 02:56:33;;;;;;;6.13;5.40;;;;;;;;;;10294348;28;20111;-68
2023/04/04 03:01:31;;;;;;;5.93;5.07;;;;;;;;;;10293123;28;20418;-68
2023/04/04 03:06:33;;;;;;;5.97;4.45;;;;;;;;;;10291569;28;20924;-68
2023/04/04 03:11:33;;;;;;;5.68;5.07;;;;;;;;;;10291181;28;20087;-67
2023/04/04 03:16:31;;;;;;;7.53;4.93;;;;;;;;;;10292658;28;20068;-68
2023/04/04 03:21:30;;;;;;;4.35;3.95;;;;;;;;;;10287944;28;20071;-67
2023/04/04 03:26:28;;;;;;;6.05;5.30;;;;;;;;;;10297791;28;20484;-67
2023/04/04 03:31:28;;;;;;;5.28;4.53;;;;;;;;;;10294626;28;20493;-67
2023/04/04 03:36:26;;;;;;;6.05;5.00;;;;;;;;;;10288440;28;20071;-67
2023/04/04 03:41:25;;;;;;;6.43;5.60;;;;;;;;;;10290774;28;20154;-67
2023/04/04 03:46:23;;;;;;;8.05;6.18;;;;;;;;;;10288780;28;20095;-66
2023/04/04 03:51:26;;;;;;;6.45;5.57;;;;;;;;;;10291193;28;20072;-66
2023/04/04 03:56:25;;;;;;;5.75;5.15;;;;;;;;;;10286002;28;20083;-66
2023/04/04 04:01:23;;;;;;;6.45;5.85;;;;;;;;;;10288230;28;20072;-66
2023/04/04 04:06:21;;;;;;;7.18;4.93;;;;;;;;;;10285493;28;20076;-70
2023/04/04 04:11:22;;;;;;;6.43;5.38;;;;;;;;;;10288508;28;20071;-68
2023/04/04 04:16:20;;;;;;;6.90;5.43;;;;;;;;;;10301430;28;20072;-68
2023/04/04 04:21:20;;;;;;;5.85;5.28;;;;;;;;;;10296509;28;20073;-68
2023/04/04 04:26:20;;;;;;;6.45;5.85;;;;;;;;;;10290225;28;20083;-68
2023/04/04 04:31:19;;;;;;;7.30;6.50;;;;;;;;;;10283698;28;20500;-67
2023/04/04 04:36:21;;;;;;;6.88;5.60;;;;;;;;;;10298983;28;20095;-67
2023/04/04 04:41:41;;;;;;;5.90;5.30;;;;;;;;;;10289683;28;20099;-67
2023/04/04 04:46:42;;;;;;;6.60;5.28;;;;;;;;;;10284453;28;20498;-67
2023/04/04 04:51:45;;;;;;;6.88;5.57;;;;;;;;;;10284210;28;20078;-67
2023/04/04 04:56:45;;;;;;;6.28;5.78;;;;;;;;;;10278585;28;20092;-67
2023/04/04 05:01:46;;;;;;;6.85;5.72;;;;;;;;;;10289165;28;20064;-67
2023/04/04 05:06:46;;;;;;;7.22;6.53;;;;;;;;;;10294259;28;20087;-67
2023/04/04 05:11:46;;;;;;;6.88;6.15;;;;;;;;;;10299442;28;20053;-68
2023/04/04 05:16:48;;;;;;;8.10;6.57;;;;;;;;;;10299631;28;20087;-67
2023/04/04 05:21:48;;;;;;;7.07;6.10;;;;;;;;;;10293508;28;20081;-68
2023/04/04 05:26:57;;;;;;;7.97;7.18;;;;;;;;;;10296148;28;20485;-68
2023/04/04 05:31:57;;;;;;;16.25;9.45;;;;;;;;;;10294009;28;20099;-67
2023/04/04 05:36:56;;;;;;;10.15;7.22;;;;;;;;;;10296311;28;20080;-68
2023/04/04 05:41:56;;;;;;;7.18;6.47;;;;;;;;;;10310598;28;20500;-68
2023/04/04 05:46:56;;;;;;;7.70;6.95;;;;;;;;;;10297484;28;20063;-69
2023/04/04 05:51:57;;;;;;;11.93;7.07;;;;;;;;;;10298705;28;20048;-69
2023/04/04 05:56:56;;;;;;;9.25;8.27;;;;;;;;;;10296395;28;20083;-69
2023/04/04 06:02:12;;;;;;;8.05;7.22;;;;;;;;;;10296538;28;20060;-69
2023/04/04 06:07:15;;;;;;;13.82;9.63;;;;;;;;;;10297678;28;20084;-69
2023/04/04 06:12:13;;;;;;;16.00;8.07;;;;;;;;;;10299393;28;20045;-69
2023/04/04 06:17:14;;;;;;;8.35;6.63;;;;;;;;;;10302654;28;20079;-69
2023/04/04 06:22:12;;;;;;;6.93;6.22;;;;;;;;;;10300574;28;20064;-69
2023/04/04 06:27:16;;;;;;;8.67;7.80;;;;;;;;;;10299947;28;20068;-69
2023/04/04 06:32:19;;;;;;;8.93;7.65;;;;;;;;;;10298594;28;20079;-69
2023/04/04 06:37:19;;;;;;;13.20;10.18;;;;;;;;;;10303461;28;20456;-68
2023/04/04 06:42:24;;;;;;;12.95;10.23;;;;;;;;;;10294083;28;20052;-69
2023/04/04 06:47:25;;;;;;;9.32;8.40;;;;;;;;;;10292937;28;20512;-68
2023/04/04 06:52:25;;;;;;;9.30;8.40;;;;;;;;;;10292139;28;20056;-68
2023/04/04 06:57:23;;;;;;;9.13;8.20;;;;;;;;;;10290805;28;20079;-69
2023/04/04 07:02:21;;;;;;;8.95;8.13;;;;;;;;;;10291247;28;20907;-68
2023/04/04 07:07:21;;;;;;;7.53;6.82;;;;;;;;;;10291624;28;20072;-70
2023/04/04 07:12:19;;;;;;;8.30;7.30;;;;;;;;;;10291802;28;20064;-68
2023/04/04 07:17:17;;;;;;;15.32;10.35;;;;;;;;;;10290576;28;20091;-70
2023/04/04 07:22:23;;;;;;;10.15;8.00;;;;;;;;;;10290892;28;20079;-70
2023/04/04 07:27:21;;;;;;;7.95;7.22;;;;;;;;;;10293523;28;20068;-68
2023/04/04 07:32:20;;;;;;;8.43;7.32;;;;;;;;;;10291199;28;20072;-69
2023/04/04 07:37:21;;;;;;;8.02;7.10;;;;;;;;;;10289123;28;20044;-69
2023/04/04 07:42:22;;;;;;;7.43;6.72;;;;;;;;;;10290034;28;20080;-69
2023/04/04 07:47:21;;;;;;;7.85;7.15;;;;;;;;;;10291700;28;20469;-69
2023/04/04 07:52:19;;;;;;;9.13;8.23;;;;;;;;;;10290658;28;20456;-69
2023/04/04 07:57:17;;;;;;;8.20;7.40;;;;;;;;;;10289238;28;20084;-69
2023/04/04 08:02:17;;;;;;;6.85;6.25;;;;;;;;;;10290870;28;20734;-69
2023/04/04 08:07:15;;;;;;;5.57;5.03;;;;;;;;;;10296338;28;20084;-69
2023/04/04 08:12:14;;;;;;;7.85;6.95;;;;;;;;;;10289372;28;20071;-69
2023/04/04 08:17:13;;;;;;;7.25;6.43;;;;;;;;;;10289711;28;20079;-69
2023/04/04 08:22:13;;;;;;;10.68;6.20;;;;;;;;;;10289167;28;20061;-69
2023/04/04 08:27:13;;;;;;;13.65;10.60;;;;;;;;;;10287954;28;20072;-69
2023/04/04 08:32:12;;;;;;;7.15;6.10;;;;;;;;;;10291498;28;20048;-69
2023/04/04 08:37:10;;;;;;;9.55;7.05;;;;;;;;;;10292028;28;20080;-69
2023/04/04 08:42:11;;;;;;;11.07;8.80;;;;;;;;;;10298409;28;20418;-69
2023/04/04 08:47:10;;;;;;;8.38;7.05;;;;;;;;;;10297676;28;20052;-69
2023/04/04 08:52:09;;;;;;;7.85;6.78;;;;;;;;;;10296154;28;20061;-68
2023/04/04 08:57:07;;;;;;;17.17;11.73;;;;;;;;;;10296616;28;20081;-68
2023/04/04 09:02:15;;;;;;;9.05;7.32;;;;;;;;;;10295616;28;20060;-68
2023/04/04 09:07:14;;;;;;;21.98;14.32;;;;;;;;;;10296490;28;20069;-69
2023/04/04 09:12:13;;;;;;;14.07;11.98;;;;;;;;;;10295530;28;20041;-69
2023/04/04 09:17:13;;;;;;;7.78;6.53;;;;;;;;;;10292775;28;20068;-69
2023/04/04 09:22:11;;;;;;;6.13;5.53;;;;;;;;;;10296680;28;20163;-69
2023/04/04 09:27:10;;;;;;;8.95;7.13;;;;;;;;;;10295633;28;20037;-68
2023/04/04 09:32:09;;;;;;;12.55;10.48;;;;;;;;;;10293762;28;20064;-69
2023/04/04 09:37:09;;;;;;;8.50;7.30;;;;;;;;;;10296410;28;20076;-69
2023/04/04 09:42:08;;;;;;;8.23;7.32;;;;;;;;;;10296897;28;20081;-68
2023/04/04 09:47:21;;;;;;;6.18;5.43;;;;;;;;;;10296243;28;20071;-68
2023/04/04 09:52:31;;;;;;;5.82;5.15;;;;;;;;;;10295510;28;20064;-69
2023/04/04 09:57:30;;;;;;;12.27;10.00;;;;;;;;;;10296333;28;20463;-69
2023/04/04 10:02:30;;;;;;;8.75;7.35;;;;;;;;;;10295380;28;20064;-69
2023/04/04 10:07:31;;;;;;;8.80;8.00;;;;;;;;;;10293443;28;20068;-69
2023/04/04 10:12:30;;;;;;;10.15;7.70;;;;;;;;;;10295156;28;20498;-68
2023/04/04 10:17:30;;;;;;;7.60;6.90;;;;;;;;;;10295528;28;20496;-69
2023/04/04 10:22:31;;;;;;;8.50;7.18;;;;;;;;;;10306777;28;20066;-68
2023/04/04 10:27:29;;;;;;;7.25;6.55;;;;;;;;;;10302447;28;20052;-69
2023/04/04 10:32:33;;;;;;;7.28;6.60;;;;;;;;;;10294520;28;20194;-69
2023/04/04 10:37:35;;;;;;;7.32;6.63;;;;;;;;;;10292939;28;20532;-69
2023/04/04 10:42:38;;;;;;;6.35;5.47;;;;;;;;;;10292940;28;20076;-68
2023/04/04 10:47:37;;;;;;;8.20;7.50;;;;;;;;;;10299203;28;20077;-69
2023/04/04 10:52:39;;;;;;;9.52;8.63;;;;;;;;;;10290241;28;20433;-69
2023/04/04 10:57:38;;;;;;;9.52;8.38;;;;;;;;;;10291014;28;20585;-69
2023/04/04 11:02:46;;;;;;;8.48;6.93;;;;;;;;;;10292031;28;20514;-69
2023/04/04 11:07:47;;;;;;;8.18;7.38;;;;;;;;;;10292888;28;20529;-69
2023/04/04 11:13:11;;;;;;;12.20;9.50;;;;;;;;;;10290568;28;20069;-69
2023/04/04 11:18:12;;;;;;;12.85;11.52;;;;;;;;;;10288792;28;20076;-69
2023/04/04 11:23:38;;;;;;;15.07;12.82;;;;;;;;;;10289828;28;20068;-69
2023/04/04 11:28:44;;;;;;;8.52;7.72;;;;;;;;;;10293432;28;20081;-70
2023/04/04 11:33:54;;;;;;;8.27;6.90;;;;;;;;;;10289921;28;20509;-69
2023/04/04 11:38:57;;;;;;;6.47;5.88;;;;;;;;;;10290591;28;20076;-70
2023/04/04 11:43:55;;;;;;;8.15;7.00;;;;;;;;;;10288044;28;20071;-70
2023/04/04 11:48:53;;;;;;;16.00;13.25;;;;;;;;;;10289247;28;20077;-70
2023/04/04 11:53:52;;;;;;;13.85;11.43;;;;;;;;;;10290514;28;20060;-69
2023/04/04 11:58:52;;;;;;;8.70;7.80;;;;;;;;;;10286352;28;20065;-69
2023/04/04 12:04:05;;;;;;;8.00;5.50;;;;;;;;;;10290111;28;20069;-69
2023/04/04 12:09:04;;;;;;;7.57;6.75;;;;;;;;;;10287991;28;20068;-69
2023/04/04 12:14:04;;;;;;;8.75;7.95;;;;;;;;;;10287764;28;20079;-69
2023/04/04 12:19:02;;;;;;;5.25;4.75;;;;;;;;;;10289691;28;20083;-69
2023/04/04 12:24:00;;;;;;;13.00;10.30;;;;;;;;;;10289949;28;20068;-68
2023/04/04 12:28:59;;;;;;;6.35;5.75;;;;;;;;;;10289422;28;20084;-68
2023/04/04 12:33:59;;;;;;;8.65;7.00;;;;;;;;;;10288873;28;20072;-68
2023/04/04 12:38:58;;;;;;;6.65;5.88;;;;;;;;;;10289233;28;20095;-68
2023/04/04 12:44:03;;;;;;;6.28;5.57;;;;;;;;;;10284529;28;20083;-68
2023/04/04 12:49:03;;;;;;;5.20;4.70;;;;;;;;;;10287994;28;20072;-68
2023/04/04 12:54:01;;;;;;;5.82;5.32;;;;;;;;;;10289016;28;20072;-67
2023/04/04 12:59:02;;;;;;;7.10;5.55;;;;;;;;;;10289014;28;20533;-68
2023/04/04 13:04:01;;;;;;;5.07;4.00;;;;;;;;;;10289682;28;20072;-68
2023/04/04 13:09:02;;;;;;;7.00;6.07;;;;;;;;;;10287800;28;20064;-69
2023/04/04 13:14:01;;;;;;;5.82;5.22;;;;;;;;;;10288749;28;20080;-69
2023/04/04 13:19:00;;;;;;;6.32;5.60;;;;;;;;;;10291802;28;20080;-68
2023/04/04 13:23:58;;;;;;;6.13;5.53;;;;;;;;;;10293890;28;20502;-69
2023/04/04 13:28:58;;;;;;;5.65;5.15;;;;;;;;;;10295106;28;20072;-68
2023/04/04 13:33:56;;;;;;;6.30;5.70;;;;;;;;;;10290661;28;20433;-69
2023/04/04 13:38:54;;;;;;;5.93;5.30;;;;;;;;;;10293629;28;20099;-68
2023/04/04 13:43:52;;;;;;;5.95;5.35;;;;;;;;;;10295314;28;20068;-69
2023/04/04 13:48:52;;;;;;;5.47;4.97;;;;;;;;;;10293159;28;20065;-69
2023/04/04 13:53:50;;;;;;;6.93;6.30;;;;;;;;;;10294918;28;20072;-69
2023/04/04 13:58:49;;;;;;;30.67;18.48;;;;;;;;;;10293983;28;20076;-69
2023/04/04 14:03:48;;;;;;;10.15;8.48;;;;;;;;;;10293859;28;20064;-69
2023/04/04 14:08:47;;;;;;;20.23;13.07;;;;;;;;;;10294454;28;20458;-69
2023/04/04 14:13:46;;;;;;;10.10;7.80;;;;;;;;;;10294439;28;20076;-68
2023/04/04 14:18:44;;;;;;;8.98;7.25;;;;;;;;;;10293246;28;20533;-69
2023/04/04 14:23:42;;;;;;;7.03;6.32;;;;;;;;;;10290305;28;20080;-67
2023/04/04 14:28:42;;;;;;;25.65;14.38;;;;;;;;;;10287323;28;20467;-68
2023/04/04 14:33:40;;;;;;;8.25;6.85;;;;;;;;;;10288990;28;20083;-69
2023/04/04 14:38:38;;;;;;;8.40;6.55;;;;;;;;;;10295739;28;20091;-69
2023/04/04 14:43:37;;;;;;;6.70;6.07;;;;;;;;;;10292732;28;20064;-69
2023/04/04 14:48:37;;;;;;;7.50;6.70;;;;;;;;;;10286112;28;20076;-70
2023/04/04 14:53:35;;;;;;;9.38;7.53;;;;;;;;;;10293813;28;20041;-69
2023/04/04 14:58:34;;;;;;;7.95;7.25;;;;;;;;;;10287798;28;20081;-68
2023/04/04 15:03:33;;;;;;;11.40;9.82;;;;;;;;;;10290967;28;20064;-68
2023/04/04 15:08:33;;;;;;;11.63;9.40;;;;;;;;;;10297428;28;20052;-69
2023/04/04 15:13:31;;;;;;;11.63;8.95;;;;;;;;;;10295137;28;20072;-69
2023/04/04 15:18:29;;;;;;;12.07;8.10;;;;;;;;;;10292841;28;20072;-69
2023/04/04 15:23:28;;;;;;;10.43;9.43;;;;;;;;;;10282753;28;20080;-69
2023/04/04 15:28:27;;;;;;;12.45;11.20;;;;;;;;;;10282818;28;20072;-68
2023/04/04 15:33:26;;;;;;;14.43;12.77;;;;;;;;;;10290419;28;20080;-68
2023/04/04 15:38:24;;;;;;;17.15;13.57;;;;;;;;;;10292810;28;20076;-68
2023/04/04 15:43:22;;;;;;;13.52;10.07;;;;;;;;;;10289496;28;20098;-68
2023/04/04 15:48:22;;;;;;;13.25;8.75;;;;;;;;;;10285274;28;20064;-69
2023/04/04 15:53:20;;;;;;;29.25;25.85;;;;;;;;;;10285856;28;20079;-68
2023/04/04 15:58:18;;;;;;;16.80;15.00;;;;;;;;;;10289962;28;20078;-68
2023/04/04 16:03:17;;;;;;;11.90;10.35;;;;;;;;;;10288350;28;20079;-70
2023/04/04 16:08:17;;;;;;;17.55;13.40;;;;;;;;;;10285597;28;20174;-69
2023/04/04 16:13:15;;;;;;;11.75;10.55;;;;;;;;;;10283972;28;20071;-69
2023/04/04 16:18:13;;;;;;;20.95;16.52;;;;;;;;;;10284077;28;20071;-68
2023/04/04 16:23:12;;;;;;;16.13;14.38;;;;;;;;;;10286440;28;20075;-68
2023/04/04 16:28:12;;;;;;;18.42;13.90;;;;;;;;;;10285120;28;20068;-67
2023/04/04 16:33:10;;;;;;;20.67;12.48;;;;;;;;;;10293858;28;20076;-68
2023/04/04 16:38:08;;;;;;;11.25;9.10;;;;;;;;;;10288789;28;20095;-68
2023/04/04 16:43:07;;;;;;;43.92;27.88;;;;;;;;;;10292359;28;20045;-68
2023/04/04 16:48:06;;;;;;;40.08;24.02;;;;;;;;;;10287757;28;21085;-68
2023/04/04 16:53:05;;;;;;;47.08;25.58;;;;;;;;;;10292047;28;20064;-68
2023/04/04 16:58:03;;;;;;;21.20;16.15;;;;;;;;;;10292107;28;20571;-70
2023/04/04 17:03:01;;;;;;;52.35;34.38;;;;;;;;;;10304029;28;20069;-68
2023/04/04 17:08:01;;;;;;;43.45;30.67;;;;;;;;;;10289979;28;20099;-69
2023/04/04 17:12:59;;;;;;;56.22;39.70;;;;;;;;;;10287282;28;20075;-68
2023/04/04 17:17:58;;;;;;;38.70;23.33;;;;;;;;;;10292411;28;20076;-68
2023/04/04 17:22:56;;;;;;;20.88;15.23;;;;;;;;;;10293613;28;20075;-69
2023/04/04 17:27:56;;;;;;;35.13;22.75;;;;;;;;;;10296542;28;20067;-69
2023/04/04 17:32:55;;;;;;;23.38;13.70;;;;;;;;;;10297079;28;20532;-69
2023/04/04 17:37:53;;;;;;;25.60;18.63;;;;;;;;;;10300855;28;20080;-69
2023/04/04 17:42:51;;;;;;;22.23;17.63;;;;;;;;;;10294553;28;20069;-69
2023/04/04 17:47:51;;;;;;;16.88;15.07;;;;;;;;;;10295582;28;20455;-69
2023/04/04 17:52:49;;;;;;;24.45;16.35;;;;;;;;;;10285877;28;20186;-69
2023/04/04 17:57:47;;;;;;;30.00;20.45;;;;;;;;;;10294349;28;20075;-69
2023/04/04 18:02:47;;;;;;;43.63;30.35;;;;;;;;;;10285844;28;20072;-69
2023/04/04 18:07:46;;;;;;;60.08;35.83;;;;;;;;;;10299023;28;20076;-67
2023/04/04 18:12:45;;;;;;;15.65;12.43;;;;;;;;;;10281541;28;20083;-68
2023/04/04 18:17:45;;;;;;;17.02;15.05;;;;;;;;;;10289739;28;20088;-68
2023/04/04 18:22:44;;;;;;;20.42;17.95;;;;;;;;;;10290241;28;20068;-69
2023/04/04 18:27:43;;;;;;;19.83;17.92;;;;;;;;;;10290457;28;20084;-68
2023/04/04 18:32:42;;;;;;;17.45;11.45;;;;;;;;;;10292654;28;20096;-69
2023/04/04 18:37:40;;;;;;;16.42;14.07;;;;;;;;;;10292490;28;20068;-69
2023/04/04 18:42:38;;;;;;;19.10;17.17;;;;;;;;;;10293004;28;20069;-67
2023/04/04 18:47:38;;;;;;;20.00;14.77;;;;;;;;;;10290525;28;20510;-68
2023/04/04 18:52:36;;;;;;;16.33;14.30;;;;;;;;;;10287146;28;20068;-68
2023/04/04 18:57:36;;;;;;;10.70;8.15;;;;;;;;;;10289955;28;20079;-69
2023/04/04 19:02:36;;;;;;;8.45;6.50;;;;;;;;;;10289628;28;20072;-68
2023/04/04 19:07:36;;;;;;;8.27;6.72;;;;;;;;;;10283643;28;20079;-68
2023/04/04 19:12:34;;;;;;;11.38;7.82;;;;;;;;;;10290236;28;20630;-69
2023/04/04 19:17:33;;;;;;;11.73;9.68;;;;;;;;;;10291441;28;20072;-69
2023/04/04 19:22:31;;;;;;;8.15;6.78;;;;;;;;;;10290133;28;20079;-68
2023/04/04 19:27:31;;;;;;;5.70;5.10;;;;;;;;;;10285471;28;20075;-69
2023/04/04 19:32:30;;;;;;;5.80;5.20;;;;;;;;;;10292463;28;20032;-69
2023/04/04 19:37:28;;;;;;;8.45;5.90;;;;;;;;;;10294327;28;20041;-69
2023/04/04 19:42:29;;;;;;;26.00;13.48;;;;;;;;;;10285356;28;20472;-69
2023/04/04 19:47:29;;;;;;;15.57;9.10;;;;;;;;;;10284420;28;20069;-69
2023/04/04 19:52:27;;;;;;;14.98;9.57;;;;;;;;;;10282388;28;20116;-68
2023/04/04 19:57:26;;;;;;;22.40;12.57;;;;;;;;;;10283213;28;20588;-69
2023/04/04 20:02:49;;;;;;;26.20;17.10;;;;;;;;;;10284625;28;20048;-68
2023/04/04 20:07:47;;;;;;;20.25;11.90;;;;;;;;;;10288830;28;20076;-69
2023/04/04 20:12:45;;;;;;;12.02;7.88;;;;;;;;;;10287301;28;20064;-68
2023/04/04 20:17:44;;;;;;;13.73;8.65;;;;;;;;;;10288682;28;20069;-68
2023/04/04 20:22:43;;;;;;;8.65;4.97;;;;;;;;;;10283823;28;20075;-68
2023/04/04 20:27:42;;;;;;;6.53;4.55;;;;;;;;;;10288819;28;20073;-68
2023/04/04 20:32:40;;;;;;;5.47;4.28;;;;;;;;;;10282375;28;20069;-68
2023/04/04 20:37:38;;;;;;;4.10;3.50;;;;;;;;;;10290851;28;20065;-68
2023/04/04 20:42:39;;;;;;;2.38;2.05;;;;;;;;;;10250103;28;1107196;-69
2023/04/04 20:47:41;;;;;;;3.90;3.30;;;;;;;;;;10285366;28;20537;-68
2023/04/04 20:52:39;;;;;;;5.93;4.32;;;;;;;;;;10288675;28;20075;-68
2023/04/04 20:57:39;;;;;;;8.43;5.20;;;;;;;;;;10286654;28;20079;-68
2023/04/04 21:02:38;;;;;;;7.35;4.93;;;;;;;;;;10285458;28;20071;-68
2023/04/04 21:07:38;;;;;;;5.95;4.30;;;;;;;;;;10285704;28;20076;-68
2023/04/04 21:12:36;;;;;;;4.72;4.22;;;;;;;;;;10287256;28;20076;-69
2023/04/04 21:17:37;;;;;;;3.60;3.30;;;;;;;;;;10287277;28;20533;-69
2023/04/04 21:22:35;;;;;;;4.35;3.70;;;;;;;;;;10288420;28;20091;-68
2023/04/04 21:27:34;;;;;;;5.13;4.28;;;;;;;;;;10285661;28;20096;-68
2023/04/04 21:32:33;;;;;;;5.03;3.63;;;;;;;;;;10286138;28;20471;-68
2023/04/04 21:37:32;;;;;;;3.10;2.80;;;;;;;;;;10282362;28;20110;-68
2023/04/04 21:42:30;;;;;;;3.22;2.92;;;;;;;;;;10286870;28;20537;-68
2023/04/04 21:47:30;;;;;;;3.78;3.05;;;;;;;;;;10289862;28;20495;-68
2023/04/04 21:52:28;;;;;;;3.67;2.38;;;;;;;;;;10291413;28;20517;-68
2023/04/04 21:57:27;;;;;;;2.78;2.58;;;;;;;;;;10292200;28;20065;-68
2023/04/04 22:02:26;;;;;;;3.53;3.22;;;;;;;;;;10289839;28;20068;-67
2023/04/04 22:07:24;;;;;;;3.47;3.17;;;;;;;;;;10292744;28;20073;-68
2023/04/04 22:12:22;;;;;;;3.15;2.95;;;;;;;;;;10292224;28;20627;-68
2023/04/04 22:17:22;;;;;;;2.33;2.13;;;;;;;;;;10293297;28;20068;-68
2023/04/04 22:22:20;;;;;;;2.67;2.33;;;;;;;;;;10295043;28;20087;-68
2023/04/04 22:27:19;;;;;;;2.10;1.95;;;;;;;;;;10294141;28;20412;-68
2023/04/04 22:32:18;;;;;;;1.60;1.50;;;;;;;;;;10291737;28;20079;-68
2023/04/04 22:37:19;;;;;;;2.15;2.05;;;;;;;;;;10294365;28;20064;-68
2023/04/04 22:42:17;;;;;;;2.20;2.10;;;;;;;;;;10289468;28;20076;-68
2023/04/04 22:47:15;;;;;;;2.17;1.98;;;;;;;;;;10290324;28;20071;-68
2023/04/04 22:52:14;;;;;;;2.10;2.00;;;;;;;;;;10287434;28;20518;-68
2023/04/04 22:57:14;;;;;;;2.65;2.45;;;;;;;;;;10293341;28;20063;-69
2023/04/04 23:02:12;;;;;;;2.20;2.10;;;;;;;;;;10291852;28;20491;-69
2023/04/04 23:07:10;;;;;;;2.03;1.92;;;;;;;;;;10290970;28;20095;-70
2023/04/04 23:12:09;;;;;;;1.38;1.38;;;;;;;;;;10292574;28;20064;-68
2023/04/04 23:17:08;;;;;;;2.30;2.17;;;;;;;;;;10293059;28;20083;-67
2023/04/04 23:22:06;;;;;;;2.15;2.05;;;;;;;;;;10290932;28;20068;-67
2023/04/04 23:27:05;;;;;;;4.05;2.40;;;;;;;;;;10292862;28;20505;-67
2023/04/04 23:32:04;;;;;;;2.13;2.00;;;;;;;;;;10291819;28;20687;-67
2023/04/04 23:37:03;;;;;;;2.53;2.40;;;;;;;;;;10290930;28;20083;-68
2023/04/04 23:42:02;;;;;;;2.55;2.35;;;;;;;;;;10292895;28;20091;-68
2023/04/04 23:47:00;;;;;;;8.50;2.50;;;;;;;;;;10284595;28;20095;-68
2023/04/04 23:51:58;;;;;;;3.03;2.70;;;;;;;;;;10286218;28;20498;-68
2023/04/04 23:56:58;;;;;;;2.40;2.17;;;;;;;;;;10288040;28;20068;-68
